createdAt,value
2017-05-02T00:01:54.844Z,51.80
2017-05-02T00:04:23.768Z,52.00
2017-05-02T00:06:52.709Z,52.00
2017-05-02T00:09:21.632Z,52.00
2017-05-02T00:11:51.297Z,51.90
2017-05-02T00:14:20.251Z,52.10
2017-05-02T00:16:49.168Z,51.90
2017-05-02T00:19:18.078Z,51.70
2017-05-02T00:21:47.025Z,51.60
2017-05-02T00:24:15.947Z,51.70
2017-05-02T00:26:44.853Z,51.70
2017-05-02T00:29:13.808Z,51.60
2017-05-02T00:31:42.731Z,51.50
2017-05-02T00:34:11.654Z,51.90
2017-05-02T00:36:40.589Z,51.90
2017-05-02T00:39:09.489Z,52.20
2017-05-02T00:41:38.417Z,51.60
2017-05-02T00:44:07.729Z,52.00
2017-05-02T00:46:36.648Z,52.30
2017-05-02T00:49:06.293Z,52.30
2017-05-02T00:51:35.240Z,52.30
2017-05-02T00:54:04.149Z,52.50
2017-05-02T00:56:33.797Z,52.50
2017-05-02T00:59:02.747Z,52.50
2017-05-02T01:01:31.656Z,53.10
2017-05-02T01:04:01.302Z,52.80
2017-05-02T01:06:30.247Z,52.70
2017-05-02T01:08:59.916Z,52.90
2017-05-02T01:11:28.845Z,52.60
2017-05-02T01:13:58.542Z,52.60
2017-05-02T01:16:27.475Z,52.90
2017-05-02T01:18:56.385Z,53.00
2017-05-02T01:21:25.339Z,52.80
2017-05-02T01:23:54.984Z,52.90
2017-05-02T01:26:23.907Z,53.20
2017-05-02T01:28:52.837Z,52.80
2017-05-02T01:31:22.503Z,52.60
2017-05-02T01:33:51.424Z,53.00
2017-05-02T01:36:21.120Z,53.00
2017-05-02T01:38:50.028Z,53.00
2017-05-02T01:41:19.692Z,53.70
2017-05-02T01:43:48.644Z,53.40
2017-05-02T01:46:18.289Z,53.20
2017-05-02T01:48:47.215Z,53.50
2017-05-02T01:51:16.148Z,53.60
2017-05-02T01:53:45.058Z,53.40
2017-05-02T01:56:13.979Z,53.60
2017-05-02T01:58:42.940Z,53.30
2017-05-02T02:01:11.841Z,53.20
2017-05-02T02:03:40.751Z,53.30
2017-05-02T02:06:09.700Z,53.50
2017-05-02T02:08:38.609Z,53.30
2017-05-02T02:11:07.535Z,53.20
2017-05-02T02:13:36.488Z,53.30
2017-05-02T02:16:05.417Z,53.60
2017-05-02T02:18:34.344Z,53.70
2017-05-02T02:21:04.051Z,54.00
2017-05-02T02:23:33.701Z,54.00
2017-05-02T02:26:02.622Z,53.70
2017-05-02T02:28:31.561Z,54.00
2017-05-02T02:31:00.468Z,54.20
2017-05-02T02:33:29.378Z,53.90
2017-05-02T02:35:58.330Z,54.10
2017-05-02T02:38:28.012Z,54.60
2017-05-02T02:40:56.935Z,54.50
2017-05-02T02:43:26.624Z,54.30
2017-05-02T02:45:55.550Z,54.10
2017-05-02T02:48:24.476Z,54.10
2017-05-02T02:50:53.405Z,54.40
2017-05-02T02:53:22.310Z,54.60
2017-05-02T02:55:51.953Z,54.50
2017-05-02T02:58:20.879Z,54.40
2017-05-02T03:00:49.804Z,54.10
2017-05-02T03:03:19.472Z,54.40
2017-05-02T03:05:48.405Z,54.20
2017-05-02T03:08:18.068Z,53.80
2017-05-02T03:10:46.982Z,53.90
2017-05-02T03:13:16.047Z,53.90
2017-05-02T03:15:44.953Z,54.00
2017-05-02T03:18:13.856Z,53.90
2017-05-02T03:20:42.815Z,53.80
2017-05-02T03:23:11.733Z,53.90
2017-05-02T03:25:40.642Z,54.00
2017-05-02T03:28:09.576Z,53.40
2017-05-02T03:30:38.507Z,54.30
2017-05-02T03:33:07.404Z,53.40
2017-05-02T03:35:36.333Z,53.40
2017-05-02T03:38:05.976Z,53.40
2017-05-02T03:40:34.895Z,53.10
2017-05-02T03:43:03.964Z,53.10
2017-05-02T03:45:32.874Z,52.80
2017-05-02T03:48:01.794Z,53.00
2017-05-02T03:50:30.738Z,53.10
2017-05-02T03:52:59.642Z,53.20
2017-05-02T03:55:28.553Z,53.20
2017-05-02T03:57:57.503Z,53.20
2017-05-02T04:00:26.419Z,53.40
2017-05-02T04:02:55.340Z,53.70
2017-05-02T04:05:24.285Z,53.80
2017-05-02T04:07:53.212Z,54.00
2017-05-02T04:10:22.121Z,53.90
2017-05-02T04:12:51.191Z,53.90
2017-05-02T04:15:20.111Z,53.80
2017-05-02T04:17:49.046Z,53.80
2017-05-02T04:20:18.000Z,53.60
2017-05-02T04:22:46.928Z,53.80
2017-05-02T04:25:15.847Z,53.70
2017-05-02T04:27:44.795Z,53.30
2017-05-02T04:30:13.704Z,53.50
2017-05-02T04:32:42.609Z,53.30
2017-05-02T04:35:11.541Z,53.30
2017-05-02T04:37:40.464Z,53.20
2017-05-02T04:40:09.386Z,52.70
2017-05-02T04:42:38.330Z,53.70
2017-05-02T04:45:07.997Z,53.70
2017-05-02T04:47:36.920Z,53.20
2017-05-02T04:50:05.882Z,52.50
2017-05-02T04:52:34.789Z,52.60
2017-05-02T04:55:03.696Z,51.60
2017-05-02T04:57:32.633Z,51.60
2017-05-02T05:00:01.561Z,51.50
2017-05-02T05:02:30.484Z,51.50
2017-05-02T05:05:00.156Z,51.20
2017-05-02T05:07:29.079Z,51.20
2017-05-02T05:09:58.748Z,50.70
2017-05-02T05:12:27.712Z,50.50
2017-05-02T05:14:56.616Z,50.40
2017-05-02T05:17:25.521Z,50.40
2017-05-02T05:19:54.472Z,50.10
2017-05-02T05:22:23.401Z,50.30
2017-05-02T05:24:52.329Z,50.10
2017-05-02T05:27:21.271Z,49.80
2017-05-02T05:29:50.177Z,49.90
2017-05-02T05:32:19.085Z,50.00
2017-05-02T05:34:48.039Z,48.70
2017-05-02T05:37:16.960Z,48.80
2017-05-02T05:39:45.883Z,49.00
2017-05-02T05:42:14.812Z,48.50
2017-05-02T05:44:43.707Z,48.50
2017-05-02T05:47:12.618Z,48.30
2017-05-02T05:49:42.718Z,48.50
2017-05-02T05:52:11.646Z,48.50
2017-05-02T05:54:40.582Z,48.40
2017-05-02T05:57:09.526Z,48.30
2017-05-02T05:59:38.432Z,48.60
2017-05-02T06:02:07.361Z,48.40
2017-05-02T06:04:36.296Z,48.50
2017-05-02T06:07:05.223Z,48.80
2017-05-02T06:09:34.872Z,48.50
2017-05-02T06:12:03.805Z,48.30
2017-05-02T06:14:32.708Z,48.60
2017-05-02T06:17:01.631Z,48.90
2017-05-02T06:19:30.997Z,48.40
2017-05-02T06:21:59.910Z,48.60
2017-05-02T06:24:29.571Z,48.90
2017-05-02T06:26:58.523Z,48.80
2017-05-02T06:29:27.436Z,48.60
2017-05-02T06:31:56.345Z,48.10
2017-05-02T06:34:25.286Z,48.20
2017-05-02T06:36:54.218Z,48.30
2017-05-02T06:39:23.147Z,48.10
2017-05-02T06:41:52.114Z,48.00
2017-05-02T06:44:21.023Z,48.20
2017-05-02T06:46:49.934Z,47.90
2017-05-02T06:49:18.907Z,47.90
2017-05-02T06:51:47.843Z,48.30
2017-05-02T06:54:17.510Z,48.50
2017-05-02T06:56:46.447Z,48.50
2017-05-02T06:59:15.358Z,48.70
2017-05-02T07:01:44.272Z,49.00
2017-05-02T07:04:13.228Z,48.20
2017-05-02T07:06:42.149Z,49.20
2017-05-02T07:09:11.075Z,48.40
2017-05-02T07:11:40.004Z,48.10
2017-05-02T07:14:08.917Z,48.10
2017-05-02T07:16:37.843Z,48.10
2017-05-02T07:19:06.773Z,48.00
2017-05-02T07:21:35.692Z,47.70
2017-05-02T07:24:04.593Z,47.30
2017-05-02T07:26:33.927Z,47.00
2017-05-02T07:29:02.838Z,46.30
2017-05-02T07:31:32.513Z,46.30
2017-05-02T07:34:01.452Z,45.50
2017-05-02T07:36:31.120Z,45.00
2017-05-02T07:39:00.043Z,44.70
2017-05-02T07:41:29.717Z,44.40
2017-05-02T07:43:58.644Z,43.50
2017-05-02T07:46:28.297Z,43.00
2017-05-02T07:48:57.263Z,42.80
2017-05-02T07:51:26.192Z,42.80
2017-05-02T07:53:55.097Z,42.50
2017-05-02T07:56:24.407Z,42.10
2017-05-02T07:58:53.329Z,42.10
2017-05-02T08:01:22.981Z,42.10
2017-05-02T08:03:51.927Z,41.60
2017-05-02T08:06:21.587Z,40.40
2017-05-02T08:08:51.248Z,40.20
2017-05-02T08:11:20.205Z,39.40
2017-05-02T08:13:49.133Z,38.70
2017-05-02T08:16:18.049Z,37.70
2017-05-02T08:18:47.005Z,37.00
2017-05-02T08:21:15.926Z,37.10
2017-05-02T08:23:44.834Z,37.90
2017-05-02T08:26:13.791Z,36.90
2017-05-02T08:28:42.719Z,36.40
2017-05-02T08:31:11.636Z,36.10
2017-05-02T08:33:41.318Z,35.00
2017-05-02T08:36:10.225Z,33.20
2017-05-02T08:38:39.893Z,32.90
2017-05-02T08:41:08.824Z,32.60
2017-05-02T08:43:38.488Z,32.60
2017-05-02T08:46:07.399Z,32.40
2017-05-02T08:48:36.359Z,32.10
2017-05-02T08:51:05.270Z,33.00
2017-05-02T08:53:34.197Z,32.40
2017-05-02T08:56:03.160Z,30.20
2017-05-02T08:58:32.089Z,30.50
2017-05-02T09:01:01.744Z,31.10
2017-05-02T09:03:30.708Z,31.10
2017-05-02T09:05:59.641Z,30.90
2017-05-02T09:08:28.548Z,29.20
2017-05-02T09:10:57.504Z,28.50
2017-05-02T09:13:26.434Z,27.00
2017-05-02T09:15:55.341Z,27.10
2017-05-02T09:18:24.281Z,26.90
2017-05-02T09:20:53.211Z,27.40
2017-05-02T09:23:22.116Z,27.60
2017-05-02T09:25:51.044Z,28.30
2017-05-02T09:28:19.981Z,29.00
2017-05-02T09:30:48.889Z,29.00
2017-05-02T09:33:18.561Z,30.00
2017-05-02T09:35:47.491Z,30.80
2017-05-02T09:38:17.143Z,31.60
2017-05-02T09:40:46.082Z,32.10
2017-05-02T09:43:14.990Z,31.90
2017-05-02T09:45:44.662Z,32.50
2017-05-02T09:48:13.612Z,32.20
2017-05-02T09:50:42.532Z,33.10
2017-05-02T09:53:11.459Z,32.70
2017-05-02T09:55:40.412Z,32.60
2017-05-02T09:58:09.329Z,32.30
2017-05-02T10:00:38.267Z,32.30
2017-05-02T10:03:07.206Z,31.90
2017-05-02T10:05:36.122Z,30.90
2017-05-02T10:08:05.028Z,29.80
2017-05-02T10:10:34.716Z,29.30
2017-05-02T10:13:03.629Z,29.20
2017-05-02T10:15:33.293Z,29.40
2017-05-02T10:18:02.250Z,29.40
2017-05-02T10:20:31.186Z,29.10
2017-05-02T10:23:00.108Z,29.30
2017-05-02T10:25:29.799Z,28.70
2017-05-02T10:27:58.709Z,29.50
2017-05-02T10:30:28.383Z,30.60
2017-05-02T10:32:57.339Z,31.30
2017-05-02T10:35:26.264Z,31.50
2017-05-02T10:37:55.187Z,31.30
2017-05-02T10:40:24.121Z,31.00
2017-05-02T10:42:53.051Z,31.10
2017-05-02T10:45:21.957Z,30.60
2017-05-02T10:47:50.889Z,31.40
2017-05-02T10:50:19.817Z,32.30
2017-05-02T10:52:48.735Z,32.90
2017-05-02T10:55:17.695Z,33.40
2017-05-02T10:57:46.604Z,34.30
2017-05-02T11:00:15.528Z,33.90
2017-05-02T11:02:45.213Z,34.10
2017-05-02T11:05:14.136Z,34.50
2017-05-02T11:07:43.796Z,34.60
2017-05-02T11:10:12.775Z,34.40
2017-05-02T11:12:41.699Z,34.70
2017-05-02T11:15:10.622Z,35.10
2017-05-02T11:17:40.324Z,35.50
2017-05-02T11:20:09.993Z,35.20
2017-05-02T11:22:38.920Z,35.40
2017-05-02T11:25:07.863Z,35.40
2017-05-02T11:27:36.795Z,35.50
2017-05-02T11:30:05.719Z,35.30
2017-05-02T11:32:35.398Z,35.40
2017-05-02T11:35:04.329Z,35.10
2017-05-02T11:37:33.255Z,34.90
2017-05-02T11:40:02.212Z,35.20
2017-05-02T11:42:31.140Z,35.50
2017-05-02T11:45:00.053Z,35.30
2017-05-02T11:47:28.984Z,35.30
2017-05-02T11:49:58.648Z,35.60
2017-05-02T11:52:27.554Z,35.30
2017-05-02T11:54:56.480Z,35.10
2017-05-02T11:57:26.129Z,35.50
2017-05-02T11:59:55.041Z,38.50
2017-05-02T12:02:23.977Z,39.40
2017-05-02T12:04:52.911Z,39.80
2017-05-02T12:07:21.814Z,40.00
2017-05-02T12:09:50.768Z,40.10
2017-05-02T12:12:19.694Z,40.20
2017-05-02T12:14:48.613Z,39.90
2017-05-02T12:17:17.575Z,40.30
2017-05-02T12:19:46.486Z,40.00
2017-05-02T12:22:15.402Z,40.10
2017-05-02T12:24:45.095Z,40.00
2017-05-02T12:27:14.020Z,40.10
2017-05-02T12:29:42.933Z,40.00
2017-05-02T12:32:11.890Z,39.80
2017-05-02T12:34:41.540Z,39.80
2017-05-02T12:37:10.449Z,39.70
2017-05-02T12:39:39.386Z,39.60
2017-05-02T12:42:09.033Z,39.90
2017-05-02T12:44:37.957Z,40.20
2017-05-02T12:47:06.892Z,40.10
2017-05-02T12:49:35.800Z,41.00
2017-05-02T12:52:04.709Z,40.70
2017-05-02T12:57:02.592Z,41.00
2017-05-02T12:59:31.510Z,40.90
2017-05-02T13:02:00.467Z,40.90
2017-05-02T13:04:29.369Z,40.90
2017-05-02T13:06:58.299Z,40.80
2017-05-02T13:09:27.246Z,41.10
2017-05-02T13:11:56.168Z,41.20
2017-05-02T13:14:25.101Z,41.50
2017-05-02T13:16:54.043Z,42.00
2017-05-02T13:19:22.955Z,42.40
2017-05-02T13:21:51.888Z,42.20
2017-05-02T13:24:20.844Z,42.70
2017-05-02T13:26:49.768Z,42.50
2017-05-02T13:29:18.697Z,43.00
2017-05-02T13:31:47.633Z,42.90
2017-05-02T13:34:18.250Z,42.90
2017-05-02T13:36:47.185Z,43.10
2017-05-02T13:39:16.140Z,43.90
2017-05-02T13:41:45.076Z,43.90
2017-05-02T13:44:13.999Z,43.90
2017-05-02T13:46:42.960Z,44.30
2017-05-02T13:49:11.873Z,44.60
2017-05-02T13:51:40.798Z,44.60
2017-05-02T13:54:09.757Z,44.20
2017-05-02T13:56:38.686Z,44.50
2017-05-02T13:59:07.623Z,44.30
2017-05-02T14:01:36.580Z,44.30
2017-05-02T14:04:06.251Z,44.40
2017-05-02T14:06:35.161Z,43.70
2017-05-02T14:09:04.108Z,44.20
2017-05-02T14:11:33.021Z,43.70
2017-05-02T14:14:01.948Z,43.20
2017-05-02T14:16:30.882Z,42.40
2017-05-02T14:18:59.809Z,41.50
2017-05-02T14:21:28.717Z,41.50
2017-05-02T14:23:57.667Z,42.90
2017-05-02T14:26:26.580Z,43.40
2017-05-02T14:28:55.493Z,44.70
2017-05-02T14:31:24.471Z,45.50
2017-05-02T14:33:53.403Z,47.10
2017-05-02T14:36:23.069Z,47.50
2017-05-02T14:38:52.010Z,47.90
2017-05-02T14:41:21.657Z,49.30
2017-05-02T14:43:50.588Z,51.10
2017-05-02T14:46:19.535Z,52.00
2017-05-02T14:48:48.448Z,53.10
2017-05-02T14:51:17.356Z,53.00
2017-05-02T14:53:46.289Z,52.70
2017-05-02T14:56:15.196Z,53.60
2017-05-02T14:58:44.119Z,51.00
2017-05-02T15:01:13.054Z,52.10
2017-05-02T15:03:42.418Z,51.30
2017-05-02T15:06:11.330Z,52.30
2017-05-02T15:08:41.004Z,51.60
2017-05-02T15:11:09.931Z,53.00
2017-05-02T15:13:39.600Z,54.80
2017-05-02T15:16:08.542Z,55.40
2017-05-02T15:18:37.460Z,55.90
2017-05-02T15:21:06.376Z,55.70
2017-05-02T15:23:36.310Z,57.00
2017-05-02T15:26:05.240Z,57.00
2017-05-02T15:28:34.144Z,56.80
2017-05-02T15:31:03.090Z,58.00
2017-05-02T15:33:32.000Z,59.60
2017-05-02T15:36:01.779Z,60.80
2017-05-02T15:38:30.724Z,61.50
2017-05-02T15:40:59.641Z,62.70
2017-05-02T15:43:28.549Z,64.00
2017-05-02T15:45:57.484Z,65.60
2017-05-02T15:48:26.407Z,65.90
2017-05-02T15:50:55.319Z,64.40
2017-05-02T15:53:24.286Z,64.60
2017-05-02T15:55:53.220Z,67.50
2017-05-02T15:58:22.156Z,67.50
2017-05-02T16:00:51.829Z,66.80
2017-05-02T16:03:20.753Z,67.00
2017-05-02T16:05:49.679Z,66.70
2017-05-02T16:08:18.634Z,66.50
2017-05-02T16:10:47.578Z,67.20
2017-05-02T16:13:16.515Z,67.30
2017-05-02T16:15:45.452Z,69.80
2017-05-02T16:18:14.502Z,69.30
2017-05-02T16:20:43.428Z,69.30
2017-05-02T16:23:12.356Z,69.40
2017-05-02T16:25:41.261Z,70.10
2017-05-02T16:28:10.187Z,69.40
2017-05-02T16:30:39.860Z,68.70
2017-05-02T16:33:08.765Z,68.60
2017-05-02T16:35:37.723Z,69.30
2017-05-02T16:38:06.674Z,70.30
2017-05-02T16:40:36.343Z,69.30
2017-05-02T16:43:05.260Z,70.10
2017-05-02T16:45:34.206Z,69.80
2017-05-02T16:48:03.183Z,70.60
2017-05-02T16:50:32.108Z,69.30
2017-05-02T16:53:01.061Z,70.60
2017-05-02T16:55:29.976Z,71.30
2017-05-02T16:57:58.906Z,71.30
2017-05-02T17:00:27.845Z,72.10
2017-05-02T17:02:56.806Z,71.10
2017-05-02T17:05:25.728Z,71.00
2017-05-02T17:07:54.675Z,71.30
2017-05-02T17:10:23.584Z,72.40
2017-05-02T17:12:53.265Z,72.40
2017-05-02T17:15:22.205Z,72.00
2017-05-02T17:17:51.890Z,72.20
2017-05-02T17:20:20.818Z,72.30
2017-05-02T17:22:49.789Z,73.60
2017-05-02T17:25:19.437Z,73.40
2017-05-02T17:27:48.365Z,74.00
2017-05-02T17:30:17.326Z,74.70
2017-05-02T17:32:46.242Z,74.20
2017-05-02T17:35:15.172Z,74.60
2017-05-02T17:37:44.849Z,74.60
2017-05-02T17:40:13.778Z,74.50
2017-05-02T17:42:43.443Z,75.20
2017-05-02T17:45:12.386Z,75.30
2017-05-02T17:47:41.324Z,76.80
2017-05-02T17:50:10.266Z,75.50
2017-05-02T17:52:40.346Z,75.70
2017-05-02T17:55:09.257Z,75.40
2017-05-02T17:57:38.183Z,75.80
2017-05-02T18:00:07.131Z,75.20
2017-05-02T18:02:36.067Z,75.90
2017-05-02T18:05:04.973Z,75.90
2017-05-02T18:07:33.926Z,76.10
2017-05-02T18:10:03.582Z,77.20
2017-05-02T18:12:32.512Z,76.70
2017-05-02T18:15:01.450Z,76.40
2017-05-02T18:17:30.381Z,77.20
2017-05-02T18:19:59.305Z,76.30
2017-05-02T18:22:29.116Z,76.60
2017-05-02T18:24:58.785Z,76.80
2017-05-02T18:27:27.714Z,76.70
2017-05-02T18:29:57.409Z,77.10
2017-05-02T18:32:26.339Z,76.80
2017-05-02T18:34:55.259Z,77.30
2017-05-02T18:37:24.191Z,77.40
2017-05-02T18:39:53.117Z,77.20
2017-05-02T18:42:22.054Z,77.00
2017-05-02T18:44:51.003Z,77.30
2017-05-02T18:47:19.921Z,77.60
2017-05-02T18:49:48.832Z,77.20
2017-05-02T18:52:17.792Z,77.00
2017-05-02T18:54:46.712Z,77.00
2017-05-02T18:57:15.631Z,77.20
2017-05-02T18:59:44.570Z,77.60
2017-05-02T19:02:13.474Z,77.00
2017-05-02T19:04:42.380Z,76.90
2017-05-02T19:07:11.327Z,77.20
2017-05-02T19:09:40.996Z,76.80
2017-05-02T19:12:09.919Z,76.50
2017-05-02T19:14:39.618Z,76.60
2017-05-02T19:17:08.536Z,76.00
2017-05-02T19:19:37.464Z,76.00
2017-05-02T19:22:06.419Z,76.20
2017-05-02T19:24:35.357Z,77.10
2017-05-02T19:27:04.265Z,76.50
2017-05-02T19:29:33.206Z,77.00
2017-05-02T19:32:02.118Z,76.90
2017-05-02T19:34:31.022Z,76.70
2017-05-02T19:36:59.976Z,77.00
2017-05-02T19:39:28.924Z,76.70
2017-05-02T19:41:57.837Z,77.50
2017-05-02T19:44:26.769Z,77.00
2017-05-02T19:46:55.699Z,76.50
2017-05-02T19:49:24.606Z,76.30
2017-05-02T19:51:53.533Z,76.70
2017-05-02T19:54:22.445Z,76.30
2017-05-02T19:56:51.351Z,77.10
2017-05-02T19:59:20.304Z,76.70
2017-05-02T20:01:49.217Z,76.70
2017-05-02T20:04:18.121Z,76.80
2017-05-02T20:06:47.072Z,76.80
2017-05-02T20:09:16.721Z,76.20
2017-05-02T20:11:45.651Z,76.20
2017-05-02T20:14:14.605Z,76.60
2017-05-02T20:16:43.538Z,77.60
2017-05-02T20:19:12.440Z,76.50
2017-05-02T20:21:42.103Z,76.60
2017-05-02T20:24:11.033Z,76.40
2017-05-02T20:26:39.989Z,76.10
2017-05-02T20:29:08.905Z,76.20
2017-05-02T20:31:37.814Z,75.90
2017-05-02T20:34:07.465Z,76.00
2017-05-02T20:36:36.395Z,76.00
2017-05-02T20:39:05.311Z,76.60
2017-05-02T20:41:34.981Z,76.00
2017-05-02T20:44:03.917Z,76.00
2017-05-02T20:46:33.581Z,76.00
2017-05-02T20:49:02.492Z,76.20
2017-05-02T20:51:31.419Z,76.70
2017-05-02T20:54:01.083Z,76.20
2017-05-02T20:56:29.994Z,76.50
2017-05-02T20:58:58.929Z,76.00
2017-05-02T21:01:27.860Z,76.30
2017-05-02T21:03:56.797Z,76.20
2017-05-02T21:06:26.488Z,76.50
2017-05-02T21:08:55.415Z,75.70
2017-05-02T21:11:24.340Z,76.00
2017-05-02T21:13:53.241Z,76.00
2017-05-02T21:16:22.176Z,75.80
2017-05-02T21:18:52.292Z,76.20
2017-05-02T21:21:21.262Z,75.90
2017-05-02T21:23:50.211Z,75.80
2017-05-02T21:26:19.141Z,76.10
2017-05-02T21:28:48.056Z,76.20
2017-05-02T21:31:17.705Z,75.90
2017-05-02T21:33:46.616Z,76.10
2017-05-02T21:36:15.568Z,75.70
2017-05-02T21:38:44.496Z,76.30
2017-05-02T21:41:13.420Z,76.10
2017-05-02T21:43:42.368Z,75.90
2017-05-02T21:46:11.272Z,75.80
2017-05-02T21:48:40.278Z,76.00
2017-05-02T21:51:09.228Z,76.00
2017-05-02T21:53:38.150Z,75.40
2017-05-02T21:56:07.075Z,75.90
2017-05-02T21:58:35.997Z,75.80
2017-05-02T22:01:04.926Z,76.20
2017-05-02T22:03:33.842Z,75.80
2017-05-02T22:06:02.802Z,75.70
2017-05-02T22:08:31.843Z,75.90
2017-05-02T22:11:01.505Z,76.10
2017-05-02T22:13:30.451Z,76.90
2017-05-02T22:16:00.103Z,76.20
2017-05-02T22:18:29.010Z,75.30
2017-05-02T22:20:57.949Z,76.10
2017-05-02T22:23:27.607Z,75.80
2017-05-02T22:25:56.523Z,75.60
2017-05-02T22:28:25.455Z,75.80
2017-05-02T22:30:55.101Z,75.80
2017-05-02T22:33:24.010Z,75.90
2017-05-02T22:35:52.949Z,76.10
2017-05-02T22:38:21.883Z,76.50
2017-05-02T22:40:50.807Z,75.80
2017-05-02T22:43:19.739Z,75.30
2017-05-02T22:45:48.659Z,75.60
2017-05-02T22:48:17.580Z,75.60
2017-05-02T22:50:46.575Z,75.40
2017-05-02T22:53:15.504Z,75.40
2017-05-02T22:55:44.424Z,75.50
2017-05-02T22:58:13.374Z,75.30
2017-05-02T23:00:43.048Z,75.50
2017-05-02T23:03:11.973Z,75.40
2017-05-02T23:05:41.663Z,75.60
2017-05-02T23:08:10.572Z,75.60
2017-05-02T23:10:40.222Z,75.70
2017-05-02T23:13:09.172Z,75.60
2017-05-02T23:15:38.820Z,75.40
2017-05-02T23:18:07.725Z,75.40
2017-05-02T23:20:36.691Z,75.90
2017-05-02T23:23:05.609Z,76.20
2017-05-02T23:25:34.536Z,76.10
2017-05-02T23:28:03.483Z,76.00
2017-05-02T23:30:32.389Z,76.10
2017-05-02T23:33:01.294Z,76.40
2017-05-02T23:35:30.228Z,76.10
2017-05-02T23:37:59.895Z,76.10
2017-05-02T23:40:28.798Z,76.00
2017-05-02T23:42:57.744Z,76.30
2017-05-02T23:45:27.393Z,76.30
2017-05-02T23:47:56.324Z,76.80
2017-05-02T23:50:26.270Z,76.40
2017-05-02T23:52:55.917Z,76.20
2017-05-02T23:55:24.844Z,76.20
2017-05-02T23:57:53.795Z,76.20
